Flight Track Log - Related Links

Times and Time Zones

All times are in EST time to prevent confusion due to time zone crossing. See the ACA295 flight status page for this flight to view local times or setup timezone preferences in your user account.

Time Position Orientation Groundspeed Altitude Reporting Facility
EST Latitude Longitude Course Direction KTS MPH feet Rate Location/Type
Sat 07:38:33 AM 49.9167 -97.2333 291° West 150 173 1,600  Level Winnipeg Center
Sat 07:39:33 AM 49.9500 -97.2333 360° North 180 207 3,000 1,900 Climbing Winnipeg Center
Sat 07:40:33 AM 50.0167 -97.2333 360° North 210 242 5,400 2,750 Climbing Winnipeg Center
Sat 07:41:00 AM 49.9852 -97.8613 276° West  Level FlightAware Approximate
Sat 07:41:33 AM 50.0167 -97.3333 270° West 250 288 8,500  Level Winnipeg Center
Sat 07:42:00 AM 49.9959 -98.0212 276° West  Level FlightAware Approximate
Sat 07:42:33 AM 50.0333 -97.4333 285° West 260 299 10,900  Level Winnipeg Center
Sat 07:43:00 AM 50.0151 -98.1773 291° West  Level FlightAware Approximate
Sat 07:43:33 AM 50.0333 -97.5667 270° West 290 334 13,800  Level Winnipeg Center
Sat 07:44:33 AM 50.0500 -97.7000 281° West 290 334 16,200 2,150 Climbing Winnipeg Center
Sat 07:45:33 AM 50.0500 -97.8333 270° West 320 368 18,100 1,950 Climbing Winnipeg Center
Sat 07:46:33 AM 50.0667 -97.9500 283° West 330 380 20,100 2,100 Climbing Winnipeg Center
Sat 07:47:33 AM 50.0667 -98.1167 270° West 340 391 22,300 2,100 Climbing Winnipeg Center
Sat 07:48:33 AM 50.0667 -98.2667 270° West 340 391 24,300 1,600 Climbing Winnipeg Center
Sat 07:49:33 AM 50.0833 -98.4333 279° West 350 403 25,500 1,250 Climbing Winnipeg Center
Sat 07:50:33 AM 50.0833 -98.5833 270° West 360 414 26,800 1,250 Climbing Winnipeg Center
Sat 07:51:33 AM 50.1000 -98.7333 280° West 370 426 28,000 1,100 Climbing Winnipeg Center
Sat 07:52:33 AM 50.1167 -98.9000 279° West 380 437 29,000 1,200 Climbing Winnipeg Center
Sat 07:53:33 AM 50.1167 -99.0500 270° West 390 449 30,400 1,450 Climbing Winnipeg Center
Sat 07:54:33 AM 50.1167 -99.2333 270° West 380 437 31,900 1,500 Climbing Winnipeg Center
Sat 07:55:33 AM 50.1167 -99.4000 270° West 370 426 33,400 1,200 Climbing Winnipeg Center
Sat 07:56:33 AM 50.1333 -99.5500 280° West 370 426 34,300 850 Climbing Winnipeg Center
Sat 07:57:33 AM 50.1500 -99.7000 280° West 370 426 35,100 700 Climbing Winnipeg Center
Sat 07:58:33 AM 50.1500 -99.8667 270° West 370 426 35,700 550 Climbing Winnipeg Center
Sat 07:59:33 AM 50.1500 -100.0500 270° West 370 426 36,200 650 Climbing Winnipeg Center
Sat 08:00:33 AM 50.1667 -100.2000 280° West 370 426 37,000 700 Climbing Winnipeg Center
Sat 08:01:33 AM 50.1833 -100.3333 281° West 370 426 37,600 500 Climbing Winnipeg Center
Sat 08:02:33 AM 50.2000 -100.5167 278° West 360 414 38,000 200 Climbing Winnipeg Center
Sat 08:03:33 AM 50.2167 -100.6833 279° West 370 426 38,000  Level Winnipeg Center
Sat 08:04:33 AM 50.2333 -100.8333 280° West 370 426 38,000  Level Winnipeg Center
Sat 08:05:33 AM 50.2500 -101.0000 279° West 370 426 38,000  Level Winnipeg Center
Sat 08:06:33 AM 50.2500 -101.1500 270° West 370 426 38,000  Level Winnipeg Center
Sat 08:07:33 AM 50.2667 -101.3167 279° West 370 426 38,000  Level Winnipeg Center
Sat 08:08:33 AM 50.2833 -101.4667 280° West 370 426 38,000  Level Winnipeg Center
Sat 08:09:33 AM 50.2833 -101.6333 270° West 370 426 38,000  Level Winnipeg Center
Sat 08:10:33 AM 50.3000 -101.8167 278° West 380 437 38,000  Level Winnipeg Center
Sat 08:11:33 AM 50.3000 -101.9667 270° West 380 437 38,000  Level Winnipeg Center
Sat 08:12:33 AM 50.3167 -102.1333 279° West 380 437 38,000  Level Winnipeg Center
Sat 08:13:33 AM 50.3333 -102.2833 280° West 380 437 38,000  Level Winnipeg Center
Sat 08:14:33 AM 50.3333 -102.4667 270° West 380 437 38,000  Level Winnipeg Center
Sat 08:15:33 AM 50.3667 -102.6333 287° West 380 437 38,000  Level Winnipeg Center
Sat 08:16:33 AM 50.3667 -102.7667 270° West 380 437 38,000  Level Winnipeg Center
Sat 08:17:33 AM 50.4000 -102.9500 286° West 380 437 38,000  Level Winnipeg Center
Sat 08:18:33 AM 50.4167 -103.1167 279° West 380 437 38,000  Level Winnipeg Center
Sat 08:19:33 AM 50.4333 -103.2667 280° West 380 437 38,000  Level Winnipeg Center
Sat 08:20:33 AM 50.4500 -103.4333 279° West 380 437 38,000  Level Winnipeg Center
Sat 08:21:33 AM 50.4500 -103.6167 270° West 380 437 38,000  Level Winnipeg Center
Sat 08:22:33 AM 50.4833 -103.7833 288° West 380 437 38,000  Level Winnipeg Center
Sat 08:23:33 AM 50.5000 -103.9500 279° West 380 437 38,000  Level Winnipeg Center
Sat 08:24:33 AM 50.5167 -104.1000 280° West 390 449 38,000  Level Winnipeg Center
Sat 08:25:33 AM 50.5333 -104.2667 279° West 390 449 38,000  Level Winnipeg Center
Sat 08:26:33 AM 50.5500 -104.4500 278° West 390 449 38,000  Level Winnipeg Center
Sat 08:27:33 AM 50.5667 -104.5833 281° West 380 437 38,000  Level Winnipeg Center
Sat 08:28:33 AM 50.5833 -104.7833 278° West 380 437 38,000  Level Winnipeg Center
Sat 08:29:33 AM 50.5833 -104.9333 270° West 390 449 38,000  Level Winnipeg Center
Sat 08:30:33 AM 50.6167 -105.1000 288° West 390 449 38,000  Level Winnipeg Center
Sat 08:31:33 AM 50.6333 -105.2667 279° West 390 449 38,000  Level Winnipeg Center
Sat 08:32:33 AM 50.6500 -105.4500 278° West 390 449 38,000  Level Winnipeg Center
Sat 08:33:33 AM 50.6667 -105.6167 279° West 390 449 38,000  Level Winnipeg Center
Sat 08:34:33 AM 50.6833 -105.7667 280° West 390 449 38,000  Level Winnipeg Center
Sat 08:35:33 AM 50.7000 -105.9333 279° West 390 449 38,000  Level Winnipeg Center
Sat 08:36:33 AM 50.7000 -106.1000 270° West 380 437 38,000  Level Winnipeg Center
Sat 08:37:33 AM 50.7167 -106.2833 278° West 380 437 38,000  Level Winnipeg Center
Sat 08:38:33 AM 50.7333 -106.4500 279° West 390 449 38,000  Level Winnipeg Center
Sat 08:39:33 AM 50.7500 -106.6167 279° West 380 437 38,000  Level Winnipeg Center
Sat 08:40:33 AM 50.7667 -106.7833 279° West 380 437 38,000  Level Winnipeg Center
Sat 08:41:33 AM 50.7667 -106.9667 270° West 380 437 38,000  Level Winnipeg Center
Sat 08:42:33 AM 50.7833 -107.1000 281° West 370 426 38,000  Level Winnipeg Center
Sat 08:43:33 AM 50.8167 -107.2667 288° West 380 437 38,000  Level Winnipeg Center
Sat 08:44:33 AM 50.8167 -107.4500 270° West 380 437 38,000  Level Winnipeg Center
Sat 08:45:33 AM 50.8333 -107.5833 281° West 370 426 38,000  Level Winnipeg Center
Sat 08:46:33 AM 50.8500 -107.7833 278° West 370 426 38,000  Level Winnipeg Center
Sat 08:47:33 AM 50.8500 -107.9333 270° West 370 426 38,000  Level Winnipeg Center
Sat 08:48:33 AM 50.8667 -108.1000 279° West 370 426 38,000  Level Winnipeg Center
Sat 08:49:33 AM 50.8667 -108.2667 270° West 370 426 38,000  Level Winnipeg Center
Sat 08:50:33 AM 50.8833 -108.4000 281° West 370 426 38,000  Level Winnipeg Center
Sat 08:51:33 AM 50.8833 -108.5667 270° West 370 426 38,000  Level Winnipeg Center
Sat 08:52:33 AM 50.9000 -108.7333 279° West 370 426 38,000  Level Winnipeg Center
Sat 08:53:33 AM 50.9167 -108.9000 279° West 370 426 38,000  Level Winnipeg Center
Sat 08:54:33 AM 50.9167 -109.0500 270° West 370 426 38,000  Level Winnipeg Center
Sat 08:55:33 AM 50.9333 -109.2167 279° West 370 426 38,000  Level Winnipeg Center
Sat 08:56:33 AM 50.9333 -109.3833 270° West 380 437 38,000  Level Winnipeg Center
Sat 08:57:33 AM 50.9500 -109.5667 278° West 380 437 38,000  Level Winnipeg Center
Sat 08:58:56 AM 50.9667 -109.7667 278° West 370 426 38,000  Level Edmonton Center
Sat 08:59:56 AM 50.9667 -109.9167 270° West 370 426 38,000  Level Edmonton Center
Sat 09:00:56 AM 50.9667 -110.0833 270° West 370 426 38,000  Level Edmonton Center
Sat 09:01:56 AM 50.9833 -110.2500 279° West 370 426 38,000  Level Edmonton Center
Sat 09:02:56 AM 50.9833 -110.4000 270° West 360 414 38,000  Level Edmonton Center
Sat 09:03:56 AM 50.9833 -110.5667 270° West 370 426 38,000  Level Edmonton Center
Sat 09:04:56 AM 50.9833 -110.7500 270° West 370 426 38,000  Level Edmonton Center
Sat 09:05:56 AM 51.0000 -110.9167 279° West 370 426 38,000  Level Edmonton Center
Sat 09:06:56 AM 50.9833 -111.0833 261° West 370 426 38,000  Level Edmonton Center
Sat 09:07:56 AM 51.0000 -111.2333 280° West 370 426 38,000  Level Edmonton Center
Sat 09:08:56 AM 51.0000 -111.4000 270° West 370 426 38,000  Level Edmonton Center
Sat 09:09:56 AM 50.9833 -111.5667 261° West 370 426 38,000  Level Edmonton Center
Sat 09:10:56 AM 51.0000 -111.7333 279° West 370 426 38,000  Level Edmonton Center
Sat 09:11:56 AM 51.0000 -111.8833 270° West 360 414 38,000  Level Edmonton Center
Sat 09:12:56 AM 51.0000 -112.0500 270° West 370 426 38,000  Level Edmonton Center
Sat 09:13:56 AM 51.0000 -112.2167 270° West 370 426 38,000  Level Edmonton Center
Sat 09:14:56 AM 51.0000 -112.3667 270° West 370 426 38,000  Level Edmonton Center
Sat 09:15:56 AM 51.0167 -112.5667 278° West 370 426 38,000  Level Edmonton Center
Sat 09:16:56 AM 51.0000 -112.7000 259° West 360 414 38,000  Level Edmonton Center
Sat 09:17:56 AM 51.0000 -112.8833 270° West 360 414 38,000  Level Edmonton Center
Sat 09:18:56 AM 51.0167 -113.0167 281° West 360 414 38,000  Level Edmonton Center
Sat 09:19:56 AM 51.0000 -113.1833 261° West 360 414 38,000  Level Edmonton Center
Sat 09:20:56 AM 51.0000 -113.3667 270° West 360 414 38,000  Level Edmonton Center
Sat 09:21:56 AM 51.0167 -113.5000 281° West 360 414 38,000  Level Edmonton Center
Sat 09:22:56 AM 51.0000 -113.6833 262° West 360 414 38,000  Level Edmonton Center
Sat 09:23:56 AM 51.0000 -113.8500 270° West 370 426 38,000  Level Edmonton Center
Sat 09:24:56 AM 51.0000 -113.9833 270° West 370 426 38,000  Level Edmonton Center
Sat 09:25:56 AM 50.9833 -114.1833 263° West 360 414 38,000  Level Edmonton Center
Sat 09:26:56 AM 51.0000 -114.3333 280° West 360 414 38,000  Level Edmonton Center
Sat 09:28:35 AM 51.0000 -114.5167 270° West 360 414 38,000  Level Vancouver Center
Sat 09:29:35 AM 51.0000 -114.6833 270° West 360 414 38,000  Level Vancouver Center
Sat 09:30:35 AM 51.0000 -114.8500 270° West 350 403 38,000  Level Vancouver Center
Sat 09:31:35 AM 51.0000 -115.0000 270° West 350 403 38,000  Level Vancouver Center
Sat 09:32:35 AM 50.9833 -115.1333 259° West 350 403 38,000  Level Vancouver Center
Sat 09:33:35 AM 50.9833 -115.3000 270° West 350 403 38,000  Level Vancouver Center
Sat 09:34:35 AM 50.9833 -115.4667 270° West 350 403 38,000  Level Vancouver Center
Sat 09:35:35 AM 50.9500 -115.6000 248° West 360 414 38,000  Level Vancouver Center
Sat 09:36:35 AM 50.9167 -115.7667 252° West 370 426 38,000  Level Vancouver Center
Sat 09:37:35 AM 50.8833 -115.9333 252° West 370 426 38,000  Level Vancouver Center
Sat 09:38:35 AM 50.8667 -116.0833 260° West 370 426 38,000  Level Vancouver Center
Sat 09:39:35 AM 50.8333 -116.2333 251° West 370 426 38,000  Level Vancouver Center
Sat 09:40:35 AM 50.8000 -116.4000 252° West 370 426 38,000  Level Vancouver Center
Sat 09:41:35 AM 50.7667 -116.5500 251° West 370 426 38,000  Level Vancouver Center
Sat 09:42:35 AM 50.7333 -116.7000 251° West 380 437 38,000  Level Vancouver Center
Sat 09:43:35 AM 50.7000 -116.8667 253° West 380 437 38,000  Level Vancouver Center
Sat 09:44:35 AM 50.6833 -117.0167 260° West 380 437 38,000  Level Vancouver Center
Sat 09:45:35 AM 50.6333 -117.1833 245° Southwest 380 437 38,000  Level Vancouver Center
Sat 09:46:35 AM 50.6167 -117.3500 261° West 380 437 38,000  Level Vancouver Center
Sat 09:47:35 AM 50.5667 -117.4833 239° Southwest 370 426 38,000  Level Vancouver Center
Sat 09:48:35 AM 50.5500 -117.6500 261° West 370 426 38,000  Level Vancouver Center
Sat 09:49:35 AM 50.5167 -117.7833 249° West 370 426 38,000  Level Vancouver Center
Sat 09:50:35 AM 50.4833 -117.9500 253° West 370 426 38,000  Level Vancouver Center
Sat 09:51:35 AM 50.4500 -118.0833 249° West 360 414 38,000  Level Vancouver Center
Sat 09:52:35 AM 50.4000 -118.2333 242° Southwest 360 414 38,000  Level Vancouver Center
Sat 09:53:35 AM 50.3833 -118.3833 260° West 360 414 38,000  Level Vancouver Center
Sat 09:54:35 AM 50.3500 -118.5333 251° West 360 414 38,000  Level Vancouver Center
Sat 09:55:35 AM 50.3167 -118.6667 249° West 350 403 38,000  Level Vancouver Center
Sat 09:56:35 AM 50.2833 -118.8333 253° West 350 403 38,000  Level Vancouver Center
Sat 09:57:35 AM 50.2500 -118.9667 249° West 350 403 38,000  Level Vancouver Center
Sat 09:58:35 AM 50.2167 -119.1333 253° West 350 403 38,000  Level Vancouver Center
Sat 09:59:35 AM 50.1833 -119.2667 249° West 360 414 38,000  Level Vancouver Center
Sat 10:00:35 AM 50.1500 -119.4167 251° West 360 414 38,000  Level Vancouver Center
Sat 10:01:35 AM 50.1333 -119.5500 259° West 340 391 38,000  Level Vancouver Center
Sat 10:02:35 AM 50.0833 -119.6833 240° Southwest 350 403 38,000 -50 Level Vancouver Center
Sat 10:03:35 AM 50.0500 -119.8167 249° West 350 403 37,900 -600 Descending Vancouver Center
Sat 10:04:35 AM 50.0167 -119.9833 253° West 350 403 36,800 -1,050 Descending Vancouver Center
Sat 10:05:35 AM 49.9833 -120.1167 249° West 330 380 35,800 -1,100 Descending Vancouver Center
Sat 10:06:35 AM 49.9500 -120.2500 249° West 290 334 34,600 -900 Descending Vancouver Center
Sat 10:07:35 AM 49.9333 -120.3500 256° West 280 322 34,000 -300 Descending Vancouver Center
Sat 10:08:35 AM 49.9000 -120.4500 243° Southwest 300 345 34,000 -250 Level Vancouver Center
Sat 10:09:35 AM 49.8667 -120.5833 249° West 310 357 33,500 -750 Descending Vancouver Center
Sat 10:10:35 AM 49.8333 -120.7000 246° West 300 345 32,500 -1,000 Descending Vancouver Center
Sat 10:11:35 AM 49.8000 -120.8500 251° West 320 368 31,500 -1,000 Descending Vancouver Center
Sat 10:12:35 AM 49.7667 -120.9500 243° Southwest 330 380 30,500 -1,150 Descending Vancouver Center
Sat 10:13:35 AM 49.7167 -121.1167 245° Southwest 340 391 29,200 -1,300 Descending Vancouver Center
Sat 10:14:35 AM 49.7000 -121.2500 259° West 350 403 27,900 -1,300 Descending Vancouver Center
Sat 10:15:35 AM 49.6667 -121.3667 246° West 350 403 26,600 -1,350 Descending Vancouver Center
Sat 10:16:35 AM 49.6167 -121.5333 245° Southwest 350 403 25,200 -1,300 Descending Vancouver Center
Sat 10:17:35 AM 49.5833 -121.6667 249° West 340 391 24,000 -1,300 Descending Vancouver Center
Sat 10:18:35 AM 49.5333 -121.8000 240° Southwest 340 391 22,600 -1,300 Descending Vancouver Center
Sat 10:19:35 AM 49.5000 -121.9167 246° West 330 380 21,400 -1,200 Descending Vancouver Center
Sat 10:20:35 AM 49.4833 -122.0500 259° West 330 380 20,200 -1,250 Descending Vancouver Center
Sat 10:21:35 AM 49.4333 -122.1833 240° Southwest 320 368 18,900 -1,100 Descending Vancouver Center
Sat 10:22:35 AM 49.4000 -122.2833 243° Southwest 300 345 18,000 -1,150 Descending Vancouver Center
Sat 10:23:35 AM 49.3667 -122.3833 243° Southwest 280 322 16,600 -1,300 Descending Vancouver Center
Sat 10:24:35 AM 49.3333 -122.5000 246° West 280 322 15,400 -1,050 Descending Vancouver Center
Sat 10:25:35 AM 49.2833 -122.6000 233° Southwest 270 311 14,500 -900 Descending Vancouver Center
Sat 10:26:35 AM 49.2500 -122.7000 243° Southwest 260 299 13,600 -850 Descending Vancouver Center
Sat 10:27:35 AM 49.2333 -122.8000 256° West 260 299 12,800 -1,500 Descending Vancouver Center
Sat 10:28:35 AM 49.2167 -122.9000 256° West 260 299 10,600 -2,000 Descending Vancouver Center
Sat 10:29:35 AM 49.2333 -123.0000 284° West 280 322 8,800 -2,150 Descending Vancouver Center
Sat 10:30:35 AM 49.2500 -123.1333 281° West 280 322 6,300 -1,800 Descending Vancouver Center
Sat 10:31:35 AM 49.2667 -123.2667 281° West 290 334 5,200 -1,350 Descending Vancouver Center
Sat 10:32:35 AM 49.2833 -123.3833 282° West 280 322 3,600 -1,100 Descending Vancouver Center
Sat 10:33:35 AM 49.2667 -123.4333 243° Southwest 220 253 3,000 -750 Descending Vancouver Center
Sat 10:34:35 AM 49.2167 -123.4167 168° South 190 219 2,100 -550 Descending Vancouver Center
Sat 10:35:35 AM 49.2000 -123.3667 117° Southeast 180 207 1,900 -400 Descending Vancouver Center
Sat 10:36:35 AM 49.2000 -123.2833 90° East 160 184 1,300 -700 Descending Vancouver Center
Sat 10:37:35 AM 49.1833 -123.2333 117° Southeast 140 161 500 -800 Descending Vancouver Center

Login

Don't have an account? Register now (free) for customized features, flight alerts, and more!